createdAt,value
2023-03-28T00:01:02.443Z,4.43
2023-03-28T00:03:30.105Z,4.34
2023-03-28T00:06:00.753Z,4.33
2023-03-28T00:08:31.192Z,4.32
2023-03-28T00:11:03.819Z,4.27
2023-03-28T00:13:30.528Z,4.26
2023-03-28T00:16:04.012Z,4.25
2023-03-28T00:18:30.751Z,4.32
2023-03-28T00:20:57.394Z,4.34
2023-03-28T00:23:24.805Z,4.15
2023-03-28T00:25:51.299Z,4.19
2023-03-28T00:28:17.737Z,4.19
2023-03-28T00:30:44.189Z,4.16
2023-03-28T00:33:11.331Z,4.13
2023-03-28T00:35:37.877Z,4.17
2023-03-28T00:38:04.349Z,4.08
2023-03-28T00:40:36.989Z,4.11
2023-03-28T00:43:03.407Z,4.09
2023-03-28T00:45:30.227Z,4.09
2023-03-28T00:48:02.183Z,4.09
2023-03-28T00:50:36.581Z,4.10
2023-03-28T00:53:09.390Z,4.07
2023-03-28T00:55:50.592Z,4.03
2023-03-28T00:58:24.180Z,3.98
2023-03-28T01:00:54.942Z,3.98
2023-03-28T01:03:27.721Z,3.94
2023-03-28T01:05:55.425Z,3.95
2023-03-28T01:08:25.432Z,4.00
2023-03-28T01:10:51.958Z,4.01
2023-03-28T01:13:23.076Z,3.98
2023-03-28T01:15:50.217Z,3.95
2023-03-28T01:18:18.687Z,3.87
2023-03-28T01:21:10.187Z,3.75
2023-03-28T01:24:11.997Z,3.56
2023-03-28T01:26:40.565Z,3.53
2023-03-28T01:29:33.057Z,3.46
2023-03-28T01:32:17.683Z,3.39
2023-03-28T01:34:56.530Z,3.32
2023-03-28T01:37:36.594Z,3.24
2023-03-28T01:40:25.764Z,3.20
2023-03-28T01:43:09.826Z,3.17
2023-03-28T01:46:05.567Z,3.12
2023-03-28T01:48:55.549Z,3.07
2023-03-28T01:51:43.482Z,3.04
2023-03-28T01:54:31.342Z,3.02
2023-03-28T01:56:57.849Z,2.99
2023-03-28T01:59:39.204Z,2.99
2023-03-28T02:02:21.212Z,3.04
2023-03-28T02:04:53.397Z,3.00
2023-03-28T02:07:25.145Z,2.98
2023-03-28T02:09:54.940Z,3.00
2023-03-28T02:12:27.513Z,2.99
2023-03-28T02:14:57.405Z,2.94
2023-03-28T02:17:28.974Z,2.95
2023-03-28T02:20:11.697Z,2.97
2023-03-28T02:22:53.688Z,2.93
2023-03-28T02:25:23.650Z,2.96
2023-03-28T02:27:55.362Z,2.98
2023-03-28T02:30:28.352Z,2.89
2023-03-28T02:33:02.957Z,2.87
2023-03-28T02:35:47.096Z,2.77
2023-03-28T02:38:36.544Z,2.76
2023-03-28T02:41:08.852Z,2.79
2023-03-28T02:43:52.258Z,2.79
2023-03-28T02:46:33.865Z,2.78
2023-03-28T02:49:09.549Z,2.74
2023-03-28T02:51:41.714Z,2.68
2023-03-28T02:54:25.824Z,2.64
2023-03-28T02:57:10.462Z,2.58
2023-03-28T02:59:42.306Z,2.57
2023-03-28T03:02:08.936Z,2.54
2023-03-28T03:04:35.593Z,2.55
2023-03-28T03:07:02.577Z,2.49
2023-03-28T03:09:29.104Z,2.51
2023-03-28T03:11:55.685Z,2.50
2023-03-28T03:14:22.513Z,2.46
2023-03-28T03:16:51.653Z,2.46
2023-03-28T03:19:19.316Z,2.41
2023-03-28T03:21:46.621Z,2.48
2023-03-28T03:24:14.333Z,2.53
2023-03-28T03:26:43.915Z,2.58
2023-03-28T03:29:10.488Z,2.62
2023-03-28T03:31:37.101Z,2.69
2023-03-28T03:34:03.921Z,2.74
2023-03-28T03:36:33.386Z,2.70
2023-03-28T03:39:00.148Z,2.65
2023-03-28T03:41:27.021Z,2.61
2023-03-28T03:43:53.560Z,2.51
2023-03-28T03:46:20.163Z,2.46
2023-03-28T03:48:49.115Z,2.42
2023-03-28T03:51:16.834Z,2.40
2023-03-28T03:53:43.331Z,2.37
2023-03-28T03:56:10.226Z,2.26
2023-03-28T03:58:39.211Z,2.24
2023-03-28T04:01:06.090Z,2.21
2023-03-28T04:03:33.930Z,2.21
2023-03-28T04:06:02.082Z,2.16
2023-03-28T04:08:28.736Z,2.06
2023-03-28T04:10:55.204Z,2.11
2023-03-28T04:13:21.697Z,2.10
2023-03-28T04:15:48.215Z,2.12
2023-03-28T04:18:20.297Z,2.07
2023-03-28T04:20:53.821Z,2.06
2023-03-28T04:23:20.751Z,2.11
2023-03-28T04:25:49.360Z,1.99
2023-03-28T04:28:16.828Z,2.08
2023-03-28T04:30:43.577Z,2.03
2023-03-28T04:33:10.466Z,2.08
2023-03-28T04:35:37.470Z,2.09
2023-03-28T04:38:04.028Z,2.08
2023-03-28T04:40:30.479Z,2.12
2023-03-28T04:42:57.124Z,2.19
2023-03-28T04:45:26.254Z,2.14
2023-03-28T04:47:53.636Z,2.21
2023-03-28T04:50:20.340Z,2.16
2023-03-28T04:52:46.918Z,2.16
2023-03-28T04:55:13.415Z,2.13
2023-03-28T04:57:40.356Z,2.18
2023-03-28T05:00:09.945Z,2.22
2023-03-28T05:02:36.574Z,2.20
2023-03-28T05:05:03.719Z,2.12
2023-03-28T05:07:30.170Z,2.16
2023-03-28T05:09:56.595Z,2.20
2023-03-28T05:12:23.089Z,2.23
2023-03-28T05:14:49.520Z,2.26
2023-03-28T05:17:16.111Z,2.22
2023-03-28T05:19:42.596Z,2.26
2023-03-28T05:22:09.112Z,2.26
2023-03-28T05:24:38.654Z,2.32
2023-03-28T05:27:05.080Z,2.35
2023-03-28T05:29:31.557Z,2.38
2023-03-28T05:31:58.037Z,2.43
2023-03-28T05:34:24.832Z,2.42
2023-03-28T05:36:51.817Z,2.41
2023-03-28T05:39:18.255Z,2.38
2023-03-28T05:41:44.741Z,2.28
2023-03-28T05:44:11.208Z,2.28
2023-03-28T05:46:37.707Z,2.28
2023-03-28T05:49:04.246Z,2.29
2023-03-28T05:51:30.706Z,2.29
2023-03-28T05:53:57.177Z,2.30
2023-03-28T05:56:23.731Z,2.28
2023-03-28T05:58:50.203Z,2.29
2023-03-28T06:01:23.317Z,2.34
2023-03-28T06:03:50.223Z,2.35
2023-03-28T06:06:17.965Z,2.41
2023-03-28T06:08:44.423Z,2.45
2023-03-28T06:11:11.426Z,2.48
2023-03-28T06:13:37.888Z,2.48
2023-03-28T06:16:04.796Z,2.50
2023-03-28T06:18:31.519Z,2.57
2023-03-28T06:20:58.293Z,2.63
2023-03-28T06:23:25.215Z,2.70
2023-03-28T06:25:51.685Z,2.71
2023-03-28T06:28:18.229Z,2.77
2023-03-28T06:30:49.006Z,2.86
2023-03-28T06:33:15.827Z,2.96
2023-03-28T06:35:42.410Z,2.98
2023-03-28T06:38:08.982Z,3.01
2023-03-28T06:40:35.533Z,3.09
2023-03-28T06:43:01.981Z,3.13
2023-03-28T06:45:28.566Z,3.20
2023-03-28T06:47:55.078Z,3.21
2023-03-28T06:50:21.554Z,3.28
2023-03-28T06:52:48.047Z,3.38
2023-03-28T06:55:14.601Z,3.40
2023-03-28T06:57:41.357Z,3.54
2023-03-28T07:00:08.537Z,3.55
2023-03-28T07:02:35.134Z,3.69
2023-03-28T07:05:01.732Z,3.74
2023-03-28T07:07:28.208Z,3.83
2023-03-28T07:09:54.759Z,3.93
2023-03-28T07:12:21.434Z,4.01
2023-03-28T07:14:48.207Z,4.18
2023-03-28T07:17:15.111Z,4.21
2023-03-28T07:19:41.634Z,4.27
2023-03-28T07:22:08.212Z,4.35
2023-03-28T07:24:34.710Z,4.39
2023-03-28T07:27:14.199Z,4.58
2023-03-28T07:29:41.747Z,4.68
2023-03-28T07:32:08.201Z,4.68
2023-03-28T07:34:34.789Z,4.85
2023-03-28T07:37:01.254Z,4.87
2023-03-28T07:39:28.382Z,5.03
2023-03-28T07:41:54.876Z,5.12
2023-03-28T07:44:21.325Z,5.14
2023-03-28T07:46:47.884Z,5.21
2023-03-28T07:49:15.448Z,5.16
2023-03-28T07:51:41.908Z,5.31
2023-03-28T07:54:17.365Z,5.50
2023-03-28T07:56:47.465Z,5.68
2023-03-28T07:59:14.852Z,5.66
2023-03-28T08:01:43.130Z,5.80
2023-03-28T08:04:11.695Z,5.95
2023-03-28T08:06:39.334Z,6.06
2023-03-28T08:09:14.314Z,6.24
2023-03-28T08:11:42.420Z,6.34
2023-03-28T08:14:13.186Z,6.36
2023-03-28T08:16:40.682Z,6.40
2023-03-28T08:19:11.651Z,6.37
2023-03-28T08:21:38.930Z,6.53
2023-03-28T08:24:07.771Z,6.65
2023-03-28T08:26:34.520Z,6.77
2023-03-28T08:29:00.954Z,6.95
2023-03-28T08:31:28.728Z,6.79
2023-03-28T08:33:55.956Z,6.98
2023-03-28T08:36:24.810Z,7.05
2023-03-28T08:38:53.224Z,7.20
2023-03-28T08:41:40.483Z,7.45
2023-03-28T08:44:19.599Z,7.19
2023-03-28T08:46:52.217Z,7.27
2023-03-28T08:49:18.812Z,7.49
2023-03-28T08:52:05.506Z,7.34
2023-03-28T08:54:42.442Z,7.35
2023-03-28T08:57:17.549Z,7.40
2023-03-28T09:00:14.918Z,7.60
2023-03-28T09:02:42.965Z,7.85
2023-03-28T09:05:23.803Z,7.92
2023-03-28T09:08:17.707Z,8.10
2023-03-28T09:10:55.341Z,8.24
2023-03-28T09:13:43.179Z,8.41
2023-03-28T09:16:20.096Z,8.60
2023-03-28T09:19:16.691Z,8.74
2023-03-28T09:22:05.033Z,8.83
2023-03-28T09:25:08.838Z,8.87
2023-03-28T09:27:50.502Z,8.71
2023-03-28T09:30:31.329Z,8.67
2023-03-28T09:33:01.103Z,8.79
2023-03-28T09:35:30.726Z,8.31
2023-03-28T09:38:02.904Z,8.48
2023-03-28T09:40:34.480Z,8.37
2023-03-28T09:43:19.228Z,8.13
2023-03-28T09:45:45.728Z,8.15
2023-03-28T09:48:19.912Z,8.24
2023-03-28T09:50:46.915Z,8.60
2023-03-28T09:53:21.292Z,8.52
2023-03-28T09:55:57.932Z,8.56
2023-03-28T09:58:28.262Z,8.49
2023-03-28T10:00:55.246Z,8.47
2023-03-28T10:03:29.060Z,8.76
2023-03-28T10:06:00.512Z,8.72
2023-03-28T10:08:32.785Z,8.87
2023-03-28T10:11:04.514Z,8.80
2023-03-28T10:13:40.577Z,8.97
2023-03-28T10:16:08.783Z,9.09
2023-03-28T10:18:35.785Z,9.11
2023-03-28T10:21:10.268Z,8.81
2023-03-28T10:23:40.358Z,9.22
2023-03-28T10:26:08.842Z,9.03
2023-03-28T10:28:36.992Z,9.15
2023-03-28T10:31:04.835Z,9.18
2023-03-28T10:33:50.895Z,9.11
2023-03-28T10:36:37.449Z,9.10
2023-03-28T10:39:22.034Z,9.10
2023-03-28T10:41:56.806Z,9.27
2023-03-28T10:44:32.203Z,9.27
2023-03-28T10:47:14.663Z,9.23
2023-03-28T10:49:45.846Z,9.12
2023-03-28T10:52:23.387Z,9.35
2023-03-28T10:54:55.514Z,9.30
2023-03-28T10:57:46.337Z,9.57
2023-03-28T11:00:51.243Z,9.64
2023-03-28T11:03:38.269Z,9.73
2023-03-28T11:06:32.178Z,9.78
2023-03-28T11:09:01.931Z,10.01
2023-03-28T11:11:45.422Z,10.03
2023-03-28T11:14:22.845Z,9.79
2023-03-28T11:16:52.389Z,9.99
2023-03-28T11:19:51.162Z,10.30
2023-03-28T11:22:38.423Z,10.29
2023-03-28T11:25:23.312Z,10.25
2023-03-28T11:28:32.496Z,10.30
2023-03-28T11:31:00.985Z,10.27
2023-03-28T11:33:32.858Z,10.16
2023-03-28T11:36:05.531Z,10.36
2023-03-28T11:39:01.528Z,10.96
2023-03-28T11:41:34.001Z,11.18
2023-03-28T11:44:28.791Z,11.31
2023-03-28T11:47:12.337Z,11.18
2023-03-28T11:49:57.989Z,10.90
2023-03-28T11:52:31.149Z,10.88
2023-03-28T11:55:18.682Z,11.16
2023-03-28T11:58:01.500Z,11.41
2023-03-28T12:00:48.821Z,11.44
2023-03-28T12:03:23.963Z,11.58
2023-03-28T12:06:12.512Z,11.86
2023-03-28T12:08:49.741Z,12.16
2023-03-28T12:11:36.894Z,11.78
2023-03-28T12:14:21.095Z,11.66
2023-03-28T12:16:51.072Z,11.73
2023-03-28T12:19:33.745Z,11.58
2023-03-28T12:22:09.165Z,11.67
2023-03-28T12:24:59.215Z,11.90
2023-03-28T12:27:47.462Z,11.95
2023-03-28T12:30:22.435Z,11.80
2023-03-28T12:32:52.000Z,11.61
2023-03-28T12:35:29.749Z,11.80
2023-03-28T12:38:22.706Z,12.11
2023-03-28T12:41:10.319Z,12.22
2023-03-28T12:43:36.710Z,12.29
2023-03-28T12:46:05.997Z,12.44
2023-03-28T12:48:35.415Z,12.50
2023-03-28T12:51:11.793Z,12.49
2023-03-28T12:53:45.752Z,12.42
2023-03-28T12:56:14.837Z,12.68
2023-03-28T12:58:41.792Z,13.06
2023-03-28T13:01:08.367Z,12.79
2023-03-28T13:03:57.038Z,12.58
2023-03-28T13:06:33.980Z,12.78
2023-03-28T13:09:39.053Z,13.11
2023-03-28T13:12:29.156Z,13.39
2023-03-28T13:15:02.067Z,12.90
2023-03-28T13:17:34.209Z,12.77
2023-03-28T13:20:15.957Z,13.25
2023-03-28T13:22:50.296Z,13.54
2023-03-28T13:25:21.151Z,13.88
2023-03-28T13:28:06.995Z,13.95
2023-03-28T13:30:33.432Z,14.09
2023-03-28T13:33:06.605Z,13.60
2023-03-28T13:35:40.959Z,13.20
2023-03-28T13:38:14.847Z,13.50
2023-03-28T13:40:48.035Z,13.11
2023-03-28T13:43:29.389Z,13.25
2023-03-28T13:45:59.228Z,13.15
2023-03-28T13:48:32.462Z,13.14
2023-03-28T13:51:03.598Z,13.02
2023-03-28T13:53:46.313Z,12.77
2023-03-28T13:56:19.911Z,12.71
2023-03-28T13:58:48.996Z,12.91
2023-03-28T14:01:21.452Z,13.00
2023-03-28T14:03:48.858Z,12.96
2023-03-28T14:06:23.939Z,12.85
2023-03-28T14:08:54.079Z,12.38
2023-03-28T14:11:26.306Z,12.47
2023-03-28T14:14:05.091Z,12.47
2023-03-28T14:16:34.082Z,12.47
2023-03-28T14:19:03.026Z,12.49
2023-03-28T14:21:29.686Z,12.75
2023-03-28T14:24:01.749Z,12.26
2023-03-28T14:26:31.984Z,12.48
2023-03-28T14:29:02.711Z,12.47
2023-03-28T14:31:40.356Z,13.23
2023-03-28T14:34:24.169Z,13.51
2023-03-28T14:37:17.612Z,13.59
2023-03-28T14:39:45.459Z,13.40
2023-03-28T14:42:17.284Z,13.37
2023-03-28T14:44:46.552Z,13.26
2023-03-28T14:47:25.213Z,13.54
2023-03-28T14:49:53.958Z,13.53
2023-03-28T14:52:31.780Z,13.96
2023-03-28T14:54:59.366Z,13.96
2023-03-28T14:57:26.559Z,13.55
2023-03-28T14:59:57.343Z,13.54
2023-03-28T15:02:41.193Z,13.34
2023-03-28T15:05:15.944Z,13.34
2023-03-28T15:07:43.192Z,13.23
2023-03-28T15:10:11.134Z,13.46
2023-03-28T15:12:45.900Z,13.66
2023-03-28T15:15:29.797Z,13.66
2023-03-28T15:17:59.275Z,13.98
2023-03-28T15:20:31.916Z,13.75
2023-03-28T15:23:02.215Z,13.61
2023-03-28T15:25:31.361Z,13.34
2023-03-28T15:28:01.485Z,13.42
2023-03-28T15:30:36.089Z,13.52
2023-03-28T15:33:05.577Z,13.34
2023-03-28T15:35:38.654Z,13.19
2023-03-28T15:38:14.961Z,13.01
2023-03-28T15:40:47.002Z,13.00
2023-03-28T15:43:34.706Z,12.78
2023-03-28T15:46:03.446Z,12.52
2023-03-28T15:48:35.946Z,12.53
2023-03-28T15:51:08.656Z,12.23
2023-03-28T15:53:37.417Z,12.41
2023-03-28T15:56:41.689Z,12.49
2023-03-28T15:59:19.948Z,12.29
2023-03-28T16:01:48.779Z,12.12
2023-03-28T16:04:21.036Z,12.27
2023-03-28T16:06:47.931Z,12.17
2023-03-28T16:09:23.338Z,12.17
2023-03-28T16:12:00.441Z,12.13
2023-03-28T16:14:27.114Z,12.16
2023-03-28T16:16:55.394Z,12.02
2023-03-28T16:19:27.504Z,12.00
2023-03-28T16:21:54.431Z,12.07
2023-03-28T16:24:21.371Z,12.00
2023-03-28T16:26:48.304Z,11.98
2023-03-28T16:29:14.940Z,11.83
2023-03-28T16:31:41.607Z,11.83
2023-03-28T16:34:10.049Z,11.78
2023-03-28T16:36:37.231Z,11.85
2023-03-28T16:39:05.295Z,11.72
2023-03-28T16:41:32.349Z,11.77
2023-03-28T16:43:58.829Z,11.83
2023-03-28T16:46:25.492Z,11.74
2023-03-28T16:48:52.210Z,11.72
2023-03-28T16:51:19.925Z,11.68
2023-03-28T16:53:46.490Z,11.67
2023-03-28T16:56:14.887Z,11.60
2023-03-28T16:58:42.138Z,11.53
2023-03-28T17:01:13.338Z,11.55
2023-03-28T17:03:39.893Z,11.42
2023-03-28T17:06:09.782Z,11.52
2023-03-28T17:08:36.453Z,11.51
2023-03-28T17:11:07.263Z,11.46
2023-03-28T17:13:34.573Z,11.55
2023-03-28T17:16:02.034Z,11.54
2023-03-28T17:18:29.852Z,11.55
2023-03-28T17:21:04.118Z,11.48
2023-03-28T17:23:32.848Z,11.52
2023-03-28T17:25:59.794Z,11.50
2023-03-28T17:28:27.003Z,11.55
2023-03-28T17:30:53.582Z,11.54
2023-03-28T17:33:20.554Z,11.44
2023-03-28T17:35:47.294Z,11.45
2023-03-28T17:38:14.409Z,11.50
2023-03-28T17:40:49.451Z,11.50
2023-03-28T17:43:16.212Z,11.51
2023-03-28T17:45:42.971Z,11.48
2023-03-28T17:48:10.293Z,11.39
2023-03-28T17:50:37.117Z,11.45
2023-03-28T17:53:04.257Z,11.43
2023-03-28T17:55:31.449Z,11.38
2023-03-28T17:57:57.988Z,11.38
2023-03-28T18:00:24.680Z,11.36
2023-03-28T18:02:51.620Z,11.31
2023-03-28T18:05:18.312Z,11.22
2023-03-28T18:07:44.776Z,11.23
2023-03-28T18:10:12.020Z,11.24
2023-03-28T18:12:38.480Z,11.29
2023-03-28T18:15:06.342Z,11.27
2023-03-28T18:17:32.932Z,11.25
2023-03-28T18:19:59.478Z,11.26
2023-03-28T18:22:26.976Z,11.22
2023-03-28T18:24:54.441Z,11.24
2023-03-28T18:27:21.083Z,11.22
2023-03-28T18:29:49.241Z,11.20
2023-03-28T18:32:16.479Z,11.17
2023-03-28T18:34:43.118Z,11.19
2023-03-28T18:37:11.122Z,11.14
2023-03-28T18:39:38.042Z,11.14
2023-03-28T18:42:06.315Z,11.08
2023-03-28T18:44:35.630Z,11.12
2023-03-28T18:47:02.622Z,11.11
2023-03-28T18:49:29.185Z,11.06
2023-03-28T18:51:55.757Z,11.05
2023-03-28T18:54:22.354Z,11.05
2023-03-28T18:56:48.827Z,11.02
2023-03-28T18:59:15.364Z,10.94
2023-03-28T19:01:44.866Z,10.98
2023-03-28T19:04:11.921Z,10.91
2023-03-28T19:06:39.620Z,10.89
2023-03-28T19:09:06.330Z,10.93
2023-03-28T19:11:32.786Z,10.88
2023-03-28T19:13:59.385Z,10.90
2023-03-28T19:16:26.206Z,10.79
2023-03-28T19:18:52.694Z,10.73
2023-03-28T19:21:19.469Z,10.75
2023-03-28T19:23:48.698Z,10.69
2023-03-28T19:26:15.457Z,10.60
2023-03-28T19:28:42.303Z,10.55
2023-03-28T19:31:11.529Z,10.64
2023-03-28T19:33:40.714Z,10.49
2023-03-28T19:36:08.315Z,10.18
2023-03-28T19:38:36.261Z,10.11
2023-03-28T19:41:09.206Z,9.93
2023-03-28T19:43:36.793Z,9.87
2023-03-28T19:46:06.249Z,9.63
2023-03-28T19:48:33.343Z,9.43
2023-03-28T19:50:59.896Z,9.41
2023-03-28T19:53:26.580Z,9.33
2023-03-28T19:55:54.741Z,9.13
2023-03-28T19:58:21.254Z,9.23
2023-03-28T20:00:48.056Z,9.05
2023-03-28T20:03:15.464Z,9.01
2023-03-28T20:05:43.218Z,9.10
2023-03-28T20:08:10.144Z,9.11
2023-03-28T20:10:44.520Z,9.04
2023-03-28T20:13:11.322Z,8.99
2023-03-28T20:15:41.094Z,8.79
2023-03-28T20:18:11.219Z,8.81
2023-03-28T20:20:39.106Z,8.82
2023-03-28T20:23:06.915Z,8.80
2023-03-28T20:25:34.258Z,8.85
2023-03-28T20:28:02.654Z,8.82
2023-03-28T20:30:31.601Z,8.65
2023-03-28T20:32:58.781Z,8.74
2023-03-28T20:35:27.297Z,8.76
2023-03-28T20:37:54.419Z,8.55
2023-03-28T20:40:22.150Z,8.56
2023-03-28T20:42:50.826Z,8.60
2023-03-28T20:45:23.148Z,8.46
2023-03-28T20:47:56.716Z,8.50
2023-03-28T20:50:34.070Z,8.29
2023-03-28T20:53:01.942Z,8.24
2023-03-28T20:55:29.578Z,8.31
2023-03-28T20:57:56.609Z,8.15
2023-03-28T21:00:24.803Z,8.12
2023-03-28T21:02:55.100Z,8.13
2023-03-28T21:05:23.896Z,8.02
2023-03-28T21:07:51.490Z,7.99
2023-03-28T21:10:19.244Z,8.03
2023-03-28T21:12:47.316Z,8.07
2023-03-28T21:15:14.687Z,8.01
2023-03-28T21:17:41.360Z,8.09
2023-03-28T21:20:10.673Z,7.87
2023-03-28T21:22:38.037Z,8.01
2023-03-28T21:25:08.505Z,7.81
2023-03-28T21:27:36.756Z,7.76
2023-03-28T21:30:07.721Z,7.72
2023-03-28T21:32:35.865Z,7.65
2023-03-28T21:35:04.191Z,7.49
2023-03-28T21:37:31.197Z,7.66
2023-03-28T21:39:57.965Z,7.56
2023-03-28T21:42:24.855Z,7.60
2023-03-28T21:44:51.956Z,7.66
2023-03-28T21:47:18.466Z,7.60
2023-03-28T21:49:46.061Z,7.68
2023-03-28T21:52:13.090Z,7.52
2023-03-28T21:54:39.554Z,7.47
2023-03-28T21:57:06.099Z,7.55
2023-03-28T21:59:32.557Z,7.56
2023-03-28T22:01:59.246Z,7.56
2023-03-28T22:04:27.850Z,7.59
2023-03-28T22:06:55.411Z,7.59
2023-03-28T22:09:21.957Z,7.58
2023-03-28T22:11:48.885Z,7.47
2023-03-28T22:14:15.423Z,7.53
2023-03-28T22:16:41.864Z,7.53
2023-03-28T22:19:09.635Z,7.51
2023-03-28T22:21:37.168Z,7.40
2023-03-28T22:24:06.511Z,7.50
2023-03-28T22:26:33.056Z,7.50
2023-03-28T22:28:59.614Z,7.39
2023-03-28T22:31:26.602Z,7.45
2023-03-28T22:33:53.819Z,7.44
2023-03-28T22:36:21.033Z,7.44
2023-03-28T22:38:47.578Z,7.43
2023-03-28T22:41:14.181Z,7.43
2023-03-28T22:43:44.055Z,7.39
2023-03-28T22:46:12.736Z,7.44
2023-03-28T22:48:39.428Z,7.46
2023-03-28T22:51:11.452Z,7.49
2023-03-28T22:53:38.951Z,7.41
2023-03-28T22:56:06.622Z,7.48
2023-03-28T22:58:33.802Z,7.46
2023-03-28T23:01:00.728Z,7.35
2023-03-28T23:03:27.673Z,7.39
2023-03-28T23:05:55.017Z,7.44
2023-03-28T23:08:22.235Z,7.42
2023-03-28T23:10:48.897Z,7.38
2023-03-28T23:13:15.363Z,7.46
2023-03-28T23:15:41.829Z,7.47
2023-03-28T23:18:08.491Z,7.55
2023-03-28T23:20:35.722Z,7.55
2023-03-28T23:23:02.262Z,7.55
2023-03-28T23:25:28.815Z,7.57
2023-03-28T23:27:55.857Z,7.58
2023-03-28T23:30:22.599Z,7.51
2023-03-28T23:32:49.043Z,7.58
2023-03-28T23:35:15.554Z,7.60
2023-03-28T23:37:42.201Z,7.52
2023-03-28T23:40:14.453Z,7.45
2023-03-28T23:42:43.692Z,7.57
2023-03-28T23:45:11.642Z,7.58
2023-03-28T23:47:38.487Z,7.53
2023-03-28T23:50:06.547Z,7.57
2023-03-28T23:52:33.233Z,7.51
2023-03-28T23:54:59.810Z,7.45
2023-03-28T23:57:28.486Z,7.48
2023-03-28T23:59:58.097Z,7.44
